Terminal Aerodrome Forecast
Issued by NWS

Home | Current Version | Previous Version | Text Only | Print | Product List | Glossary On
Versions: 1 2 3 4 5 6 7 8 9 10 11 12 13 14 15 16 17 18 19 20 21
000
FTUS43 KGRR 210500
TAFAZO
TAF
KAZO 210540Z 2106/2206 17005KT 4SM BR OVC025
     FM211000 VRB03KT 2SM BR OVC015
     FM211500 18006KT 5SM BR OVC015
     FM211800 18007KT P6SM OVC050=

USA.gov is the U.S. government's official web portal to all federal, state and local government web resources and services.